createdAt,value
2019-01-18T00:00:27.659Z,84.79
2019-01-18T00:01:27.712Z,84.46
2019-01-18T00:02:28.531Z,84.91
2019-01-18T00:03:29.206Z,85.30
2019-01-18T00:04:30.691Z,85.19
2019-01-18T00:05:29.347Z,85.15
2019-01-18T00:06:30.969Z,84.91
2019-01-18T00:06:39.392Z,84.80
2019-01-18T00:07:40.978Z,84.83
2019-01-18T00:08:41.593Z,85.57
2019-01-18T00:09:42.340Z,85.15
2019-01-18T00:10:43.295Z,84.52
2019-01-18T00:11:44.116Z,84.77
2019-01-18T00:12:44.722Z,84.27
2019-01-18T00:13:45.458Z,84.32
2019-01-18T00:14:46.226Z,84.12
2019-01-18T00:15:47.114Z,84.40
2019-01-18T00:16:47.817Z,84.22
2019-01-18T00:17:48.425Z,84.62
2019-01-18T00:18:49.400Z,84.74
2019-01-18T00:19:49.005Z,84.48
2019-01-18T00:20:50.545Z,85.03
2019-01-18T00:21:51.376Z,84.89
2019-01-18T00:22:52.047Z,85.20
2019-01-18T00:23:52.511Z,85.30
2019-01-18T00:24:52.989Z,85.30
2019-01-18T00:25:53.629Z,85.68
2019-01-18T00:26:54.183Z,86.17
2019-01-18T00:27:54.785Z,85.67
2019-01-18T00:28:55.399Z,86.34
2019-01-18T00:29:55.982Z,86.75
2019-01-18T00:30:56.546Z,85.91
2019-01-18T00:31:57.432Z,85.15
2019-01-18T00:32:58.229Z,84.92
2019-01-18T00:33:58.840Z,85.10
2019-01-18T00:34:59.432Z,85.34
2019-01-18T00:36:00.049Z,85.33
2019-01-18T00:37:00.982Z,86.17
2019-01-18T00:38:01.735Z,85.96
2019-01-18T00:39:02.223Z,86.09
2019-01-18T00:40:03.073Z,85.98
2019-01-18T00:41:03.711Z,86.02
2019-01-18T00:42:03.296Z,86.62
2019-01-18T00:43:04.985Z,86.17
2019-01-18T00:44:05.474Z,85.79
2019-01-18T00:45:04.975Z,85.27
2019-01-18T00:46:06.716Z,84.72
2019-01-18T00:47:07.192Z,84.63
2019-01-18T00:48:07.859Z,84.59
2019-01-18T00:49:08.405Z,85.33
2019-01-18T00:50:08.966Z,85.27
2019-01-18T00:51:09.521Z,85.60
2019-01-18T00:52:10.118Z,85.52
2019-01-18T00:52:18.539Z,85.32
2019-01-18T00:53:19.627Z,85.27
2019-01-18T00:54:20.136Z,85.43
2019-01-18T00:55:20.653Z,85.00
2019-01-18T00:56:21.421Z,84.62
2019-01-18T00:57:20.838Z,84.55
2019-01-18T00:58:22.308Z,85.16
2019-01-18T00:59:22.824Z,84.55
2019-01-18T01:00:23.293Z,84.61
2019-01-18T01:01:23.880Z,84.35
2019-01-18T01:02:24.691Z,84.59
2019-01-18T01:03:25.358Z,85.03
2019-01-18T01:04:25.979Z,84.76
2019-01-18T01:05:26.854Z,84.92
2019-01-18T01:06:27.585Z,85.07
2019-01-18T01:07:28.200Z,84.69
2019-01-18T01:08:28.842Z,84.60
2019-01-18T01:09:28.196Z,84.41
2019-01-18T01:10:29.985Z,84.30
2019-01-18T01:11:30.435Z,84.79
2019-01-18T01:12:31.017Z,84.92
2019-01-18T01:13:31.523Z,85.03
2019-01-18T01:14:31.991Z,85.43
2019-01-18T01:15:32.597Z,85.78
2019-01-18T01:16:33.165Z,86.01
2019-01-18T01:17:33.654Z,85.72
2019-01-18T01:18:34.100Z,85.72
2019-01-18T01:19:34.574Z,86.14
2019-01-18T01:20:35.261Z,86.28
2019-01-18T01:21:36.019Z,85.88
2019-01-18T01:22:36.531Z,85.95
2019-01-18T01:23:37.423Z,86.21
2019-01-18T01:24:38.079Z,87.03
2019-01-18T01:25:38.661Z,87.13
2019-01-18T01:26:39.383Z,87.68
2019-01-18T01:27:40.029Z,87.74
2019-01-18T01:28:40.930Z,88.00
2019-01-18T01:29:43.117Z,87.93
2019-01-18T01:30:41.069Z,87.91
2019-01-18T01:31:42.754Z,88.20
2019-01-18T01:32:43.439Z,88.36
2019-01-18T01:33:43.983Z,87.87
2019-01-18T01:34:44.868Z,87.34
2019-01-18T01:35:45.502Z,86.43
2019-01-18T01:36:46.158Z,87.10
2019-01-18T01:37:46.883Z,86.48
2019-01-18T01:37:54.966Z,85.65
2019-01-18T01:38:56.673Z,85.65
2019-01-18T01:39:57.303Z,84.97
2019-01-18T01:40:57.978Z,85.22
2019-01-18T01:41:58.958Z,87.02
2019-01-18T01:42:59.474Z,87.50
2019-01-18T01:43:59.972Z,87.94
2019-01-18T01:45:00.714Z,88.49
2019-01-18T01:46:00.281Z,88.50
2019-01-18T01:47:01.860Z,88.44
2019-01-18T01:48:02.521Z,88.15
2019-01-18T01:49:03.110Z,88.52
2019-01-18T01:50:04.179Z,88.76
2019-01-18T01:51:03.811Z,88.78
2019-01-18T01:52:05.454Z,88.74
2019-01-18T01:53:06.284Z,88.71
2019-01-18T01:54:06.879Z,88.51
2019-01-18T01:55:06.474Z,88.13
2019-01-18T01:56:08.421Z,87.60
2019-01-18T01:57:08.067Z,87.60
2019-01-18T01:58:09.833Z,87.68
2019-01-18T01:59:10.386Z,88.46
2019-01-18T02:00:10.916Z,88.86
2019-01-18T02:01:11.513Z,89.67
2019-01-18T02:02:12.118Z,90.64
2019-01-18T02:03:12.636Z,90.67
2019-01-18T02:04:13.175Z,91.38
2019-01-18T02:05:13.701Z,91.70
2019-01-18T02:06:14.316Z,92.02
2019-01-18T02:07:14.938Z,93.20
2019-01-18T02:08:15.673Z,93.47
2019-01-18T02:09:16.575Z,93.92
2019-01-18T02:10:15.814Z,94.37
2019-01-18T02:11:17.382Z,94.77
2019-01-18T02:12:17.858Z,94.92
2019-01-18T02:13:18.370Z,95.29
2019-01-18T02:14:18.949Z,95.43
2019-01-18T02:15:19.441Z,95.64
2019-01-18T02:16:20.028Z,95.70
2019-01-18T02:17:20.996Z,94.99
2019-01-18T02:18:21.827Z,94.88
2019-01-18T02:19:22.696Z,95.20
2019-01-18T02:20:23.460Z,95.10
2019-01-18T02:21:22.704Z,95.21
2019-01-18T02:22:24.333Z,95.68
2019-01-18T02:23:24.859Z,96.45
2019-01-18T02:24:25.468Z,96.79
2019-01-18T02:25:26.117Z,97.21
2019-01-18T02:26:26.883Z,97.27
2019-01-18T02:26:48.923Z,97.11
2019-01-18T02:27:49.631Z,97.12
2019-01-18T02:28:49.710Z,97.18
2019-01-18T02:29:56.372Z,97.37
2019-01-18T02:30:49.858Z,97.67
2019-01-18T02:31:51.687Z,98.19
2019-01-18T02:32:52.362Z,98.51
2019-01-18T02:33:53.073Z,98.47
2019-01-18T02:34:53.648Z,98.75
2019-01-18T02:35:54.355Z,98.32
2019-01-18T02:36:54.884Z,98.48
2019-01-18T02:37:55.420Z,98.36
2019-01-18T02:38:56.298Z,98.55
2019-01-18T02:39:56.407Z,98.67
2019-01-18T02:40:57.160Z,98.78
2019-01-18T02:41:57.680Z,98.91
2019-01-18T02:42:58.398Z,99.25
2019-01-18T02:43:59.041Z,99.38
2019-01-18T02:44:59.577Z,99.20
2019-01-18T02:46:00.143Z,99.07
2019-01-18T02:47:00.677Z,99.08
2019-01-18T02:48:01.557Z,98.88
2019-01-18T02:49:02.513Z,98.52
2019-01-18T02:50:03.098Z,98.53
2019-01-18T02:51:03.614Z,98.37
2019-01-18T02:52:04.278Z,98.15
2019-01-18T02:53:04.930Z,97.95
2019-01-18T02:54:05.856Z,97.81
2019-01-18T02:55:06.531Z,97.31
2019-01-18T02:56:07.044Z,97.27
2019-01-18T02:57:07.871Z,97.43
2019-01-18T02:58:08.634Z,97.59
2019-01-18T02:59:08.646Z,97.54
2019-01-18T03:00:09.451Z,96.71
2019-01-18T03:01:10.129Z,96.52
2019-01-18T03:02:10.844Z,96.63
2019-01-18T03:03:11.415Z,96.08
2019-01-18T03:04:12.008Z,95.74
2019-01-18T03:05:12.765Z,95.75
2019-01-18T03:06:13.387Z,95.03
2019-01-18T03:07:13.927Z,95.38
2019-01-18T03:08:14.445Z,95.87
2019-01-18T03:09:14.981Z,96.22
2019-01-18T03:10:15.509Z,95.58
2019-01-18T03:11:16.048Z,95.17
2019-01-18T03:11:24.102Z,94.99
2019-01-18T03:12:25.916Z,94.98
2019-01-18T03:13:26.433Z,94.87
2019-01-18T03:14:27.059Z,95.13
2019-01-18T03:15:27.776Z,95.42
2019-01-18T03:16:28.251Z,95.69
2019-01-18T03:17:28.722Z,95.55
2019-01-18T03:18:29.242Z,94.98
2019-01-18T03:19:29.663Z,95.12
2019-01-18T03:20:30.036Z,95.20
2019-01-18T03:21:30.623Z,95.10
2019-01-18T03:22:31.093Z,95.24
2019-01-18T03:23:31.635Z,95.47
2019-01-18T03:24:32.078Z,96.07
2019-01-18T03:25:32.500Z,96.39
2019-01-18T03:26:33.003Z,96.16
2019-01-18T03:27:33.558Z,95.52
2019-01-18T03:28:32.958Z,95.22
2019-01-18T03:29:34.764Z,95.37
2019-01-18T03:30:35.300Z,95.41
2019-01-18T03:31:35.796Z,95.62
2019-01-18T03:32:36.325Z,95.86
2019-01-18T03:33:36.754Z,95.89
2019-01-18T03:34:37.460Z,95.63
2019-01-18T03:35:37.923Z,95.04
2019-01-18T03:36:38.660Z,94.66
2019-01-18T03:37:39.568Z,94.60
2019-01-18T03:38:40.118Z,95.07
2019-01-18T03:39:40.682Z,95.46
2019-01-18T03:40:41.230Z,95.39
2019-01-18T03:41:41.890Z,95.49
2019-01-18T03:42:42.447Z,95.92
2019-01-18T03:43:43.037Z,95.37
2019-01-18T03:44:43.600Z,95.26
2019-01-18T03:45:44.304Z,95.38
2019-01-18T03:46:44.979Z,95.62
2019-01-18T03:47:45.485Z,93.85
2019-01-18T03:48:46.190Z,92.90
2019-01-18T03:49:46.777Z,92.41
2019-01-18T03:50:47.396Z,91.56
2019-01-18T03:51:48.215Z,91.38
2019-01-18T03:52:48.903Z,91.79
2019-01-18T03:53:49.691Z,92.45
2019-01-18T03:54:50.243Z,93.04
2019-01-18T03:54:58.557Z,93.13
2019-01-18T03:56:00.176Z,93.14
2019-01-18T03:57:00.678Z,93.30
2019-01-18T03:58:01.461Z,92.83
2019-01-18T03:59:01.946Z,92.51
2019-01-18T04:00:02.507Z,92.58
2019-01-18T04:01:03.279Z,92.86
2019-01-18T04:02:03.801Z,92.64
2019-01-18T04:03:04.390Z,91.20
2019-01-18T04:04:04.895Z,91.72
2019-01-18T04:05:05.469Z,92.13
2019-01-18T04:06:05.509Z,91.78
2019-01-18T04:07:06.092Z,91.59
2019-01-18T04:08:07.006Z,91.45
2019-01-18T04:09:07.775Z,91.04
2019-01-18T04:10:08.460Z,90.93
2019-01-18T04:11:09.279Z,92.24
2019-01-18T04:12:09.878Z,92.53
2019-01-18T04:13:10.477Z,92.46
2019-01-18T04:14:11.194Z,92.69
2019-01-18T04:15:11.928Z,92.95
2019-01-18T04:16:12.589Z,92.97
2019-01-18T04:17:13.087Z,92.00
2019-01-18T04:18:13.659Z,91.51
2019-01-18T04:19:14.255Z,92.02
2019-01-18T04:20:14.933Z,91.48
2019-01-18T04:21:15.633Z,92.00
2019-01-18T04:22:16.219Z,92.54
2019-01-18T04:23:16.826Z,92.85
2019-01-18T04:24:16.839Z,92.98
2019-01-18T04:25:17.455Z,93.19
2019-01-18T04:26:18.221Z,93.32
2019-01-18T04:27:18.906Z,93.00
2019-01-18T04:28:19.488Z,93.54
2019-01-18T04:29:20.073Z,94.01
2019-01-18T04:30:21.074Z,94.29
2019-01-18T04:31:21.838Z,94.08
2019-01-18T04:32:22.485Z,94.03
2019-01-18T04:33:23.037Z,94.31
2019-01-18T04:34:23.867Z,93.85
2019-01-18T04:35:24.535Z,93.88
2019-01-18T04:36:25.130Z,94.21
2019-01-18T04:37:25.831Z,94.45
2019-01-18T04:38:26.491Z,94.61
2019-01-18T04:39:27.120Z,94.80
2019-01-18T04:39:35.440Z,95.14
2019-01-18T04:40:37.062Z,95.15
2019-01-18T04:41:37.705Z,96.00
2019-01-18T04:42:38.314Z,96.17
2019-01-18T04:43:38.862Z,96.25
2019-01-18T04:44:39.394Z,96.70
2019-01-18T04:45:39.973Z,96.96
2019-01-18T04:46:40.629Z,96.51
2019-01-18T04:47:41.178Z,96.48
2019-01-18T04:48:41.692Z,96.63
2019-01-18T04:49:42.178Z,97.22
2019-01-18T04:50:42.718Z,97.20
2019-01-18T04:51:43.317Z,97.49
2019-01-18T04:52:43.967Z,97.34
2019-01-18T04:53:44.520Z,97.06
2019-01-18T04:54:45.306Z,96.48
2019-01-18T04:55:45.892Z,96.88
2019-01-18T04:56:46.555Z,97.03
2019-01-18T04:57:47.150Z,97.43
2019-01-18T04:58:47.917Z,97.45
2019-01-18T04:59:48.675Z,97.48
2019-01-18T05:00:49.408Z,97.57
2019-01-18T05:01:50.248Z,97.58
2019-01-18T05:02:50.858Z,97.91
2019-01-18T05:03:51.470Z,98.00
2019-01-18T05:04:52.236Z,98.05
2019-01-18T05:05:53.140Z,98.12
2019-01-18T05:06:54.038Z,98.43
2019-01-18T05:07:54.624Z,98.66
2019-01-18T05:08:55.141Z,98.83
2019-01-18T05:09:55.904Z,98.34
2019-01-18T05:10:56.543Z,98.32
2019-01-18T05:11:57.151Z,98.43
2019-01-18T05:12:57.726Z,98.97
2019-01-18T05:13:57.851Z,99.41
2019-01-18T05:14:58.370Z,99.53
2019-01-18T05:15:59.074Z,99.70
2019-01-18T05:16:59.710Z,99.74
2019-01-18T05:18:00.273Z,99.48
2019-01-18T05:19:00.961Z,99.79
2019-01-18T05:20:01.598Z,100.02
2019-01-18T05:21:02.362Z,99.85
2019-01-18T05:22:03.087Z,99.30
2019-01-18T05:23:03.579Z,99.24
2019-01-18T05:23:11.724Z,99.42
2019-01-18T05:24:13.479Z,99.43
2019-01-18T05:25:14.144Z,99.59
2019-01-18T05:26:14.939Z,99.90
2019-01-18T05:27:15.593Z,99.96
2019-01-18T05:28:16.220Z,100.06
2019-01-18T05:29:16.761Z,100.22
2019-01-18T05:30:17.367Z,100.43
2019-01-18T05:31:17.908Z,100.46
2019-01-18T05:32:18.697Z,99.46
2019-01-18T05:33:18.717Z,99.04
2019-01-18T05:34:19.238Z,98.69
2019-01-18T05:35:19.743Z,98.62
2019-01-18T05:36:20.245Z,98.81
2019-01-18T05:37:20.835Z,98.77
2019-01-18T05:38:21.804Z,98.96
2019-01-18T05:39:22.379Z,99.13
2019-01-18T05:40:23.151Z,99.22
2019-01-18T05:41:24.921Z,99.39
2019-01-18T05:42:24.522Z,99.25
2019-01-18T05:43:25.104Z,98.95
2019-01-18T05:44:26.680Z,98.71
2019-01-18T05:45:25.746Z,98.43
2019-01-18T05:46:26.398Z,98.24
2019-01-18T05:47:27.104Z,98.12
2019-01-18T05:48:27.901Z,98.01
2019-01-18T05:49:29.497Z,97.74
2019-01-18T05:50:29.085Z,97.71
2019-01-18T05:51:29.804Z,96.74
2019-01-18T05:52:30.481Z,96.77
2019-01-18T05:53:30.363Z,96.95
2019-01-18T05:54:31.958Z,97.30
2019-01-18T05:55:32.689Z,97.29
2019-01-18T05:56:33.396Z,97.28
2019-01-18T05:57:34.026Z,97.06
2019-01-18T05:58:34.683Z,96.59
2019-01-18T05:59:35.384Z,95.47
2019-01-18T06:00:36.122Z,94.80
2019-01-18T06:01:36.932Z,94.69
2019-01-18T06:02:37.494Z,94.39
2019-01-18T06:03:38.382Z,94.44
2019-01-18T06:04:39.204Z,93.87
2019-01-18T06:05:39.774Z,93.97
2019-01-18T06:06:40.525Z,94.21
2019-01-18T06:06:48.883Z,94.05
2019-01-18T06:07:49.813Z,94.05
2019-01-18T06:08:50.511Z,94.29
2019-01-18T06:09:50.990Z,94.54
2019-01-18T06:10:51.575Z,94.88
2019-01-18T06:11:51.196Z,95.28
2019-01-18T06:12:52.939Z,94.88
2019-01-18T06:13:53.746Z,94.77
2019-01-18T06:14:54.563Z,94.18
2019-01-18T06:15:55.202Z,94.21
2019-01-18T06:16:55.862Z,94.27
2019-01-18T06:17:56.571Z,94.48
2019-01-18T06:18:57.197Z,94.81
2019-01-18T06:19:57.694Z,95.13
2019-01-18T06:20:58.224Z,95.31
2019-01-18T06:21:58.700Z,94.99
2019-01-18T06:22:59.193Z,94.77
2019-01-18T06:23:59.880Z,94.89
2019-01-18T06:25:00.343Z,94.68
2019-01-18T06:26:00.868Z,94.60
2019-01-18T06:27:01.441Z,94.89
2019-01-18T06:28:02.295Z,95.24
2019-01-18T06:29:01.834Z,95.13
2019-01-18T06:30:03.388Z,95.66
2019-01-18T06:31:04.074Z,95.98
2019-01-18T06:32:04.673Z,96.08
2019-01-18T06:33:05.361Z,95.90
2019-01-18T06:34:05.862Z,95.97
2019-01-18T06:35:06.353Z,96.45
2019-01-18T06:36:07.156Z,96.14
2019-01-18T06:37:08.159Z,95.83
2019-01-18T06:38:07.807Z,95.77
2019-01-18T06:39:09.361Z,95.97
2019-01-18T06:40:09.913Z,96.05
2019-01-18T06:41:10.069Z,95.97
2019-01-18T06:42:10.682Z,96.23
2019-01-18T06:43:11.268Z,95.77
2019-01-18T06:44:11.891Z,95.50
2019-01-18T06:45:12.685Z,95.64
2019-01-18T06:46:13.371Z,95.77
2019-01-18T06:47:13.885Z,95.51
2019-01-18T06:48:14.556Z,95.91
2019-01-18T06:49:15.026Z,95.84
2019-01-18T06:50:15.590Z,95.14
2019-01-18T06:51:16.302Z,95.02
2019-01-18T06:52:16.821Z,95.21
2019-01-18T06:53:17.474Z,95.48
2019-01-18T06:53:25.561Z,95.67
2019-01-18T06:54:27.208Z,95.68
2019-01-18T06:55:27.748Z,96.09
2019-01-18T06:56:28.461Z,96.21
2019-01-18T06:57:29.211Z,96.19
2019-01-18T06:58:29.797Z,96.20
2019-01-18T06:59:30.375Z,96.25
2019-01-18T07:00:31.080Z,96.34
2019-01-18T07:01:31.507Z,95.64
2019-01-18T07:02:32.277Z,95.66
2019-01-18T07:03:32.941Z,95.90
2019-01-18T07:04:33.634Z,95.87
2019-01-18T07:05:34.305Z,96.00
2019-01-18T07:06:35.171Z,96.42
2019-01-18T07:07:35.940Z,96.58
2019-01-18T07:08:36.604Z,96.43
2019-01-18T07:09:37.061Z,96.94
2019-01-18T07:10:37.518Z,97.22
2019-01-18T07:11:38.146Z,97.65
2019-01-18T07:12:38.182Z,98.07
2019-01-18T07:13:38.924Z,98.25
2019-01-18T07:14:39.653Z,98.31
2019-01-18T07:15:39.345Z,98.28
2019-01-18T07:16:41.153Z,98.52
2019-01-18T07:17:41.966Z,98.61
2019-01-18T07:18:42.944Z,98.63
2019-01-18T07:19:43.789Z,98.75
2019-01-18T07:20:44.532Z,99.04
2019-01-18T07:21:45.219Z,99.34
2019-01-18T07:22:45.846Z,99.54
2019-01-18T07:23:46.634Z,99.43
2019-01-18T07:24:47.222Z,99.23
2019-01-18T07:25:48.832Z,99.06
2019-01-18T07:26:48.729Z,99.02
2019-01-18T07:27:50.394Z,99.00
2019-01-18T07:28:49.944Z,98.94
2019-01-18T07:29:50.723Z,98.83
2019-01-18T07:30:51.377Z,98.73
2019-01-18T07:31:52.293Z,98.72
2019-01-18T07:32:53.025Z,98.64
2019-01-18T07:33:53.871Z,98.65
2019-01-18T07:34:54.529Z,98.87
2019-01-18T07:35:55.448Z,98.66
2019-01-18T07:36:56.049Z,98.73
2019-01-18T07:37:56.835Z,98.87
2019-01-18T07:38:05.298Z,98.44
2019-01-18T07:39:05.897Z,98.43
2019-01-18T07:40:06.540Z,98.38
2019-01-18T07:41:07.186Z,98.51
2019-01-18T07:42:08.117Z,97.99
2019-01-18T07:43:08.793Z,98.33
2019-01-18T07:44:09.578Z,98.37
2019-01-18T07:45:10.377Z,98.32
2019-01-18T07:46:10.369Z,98.29
2019-01-18T07:47:11.302Z,98.79
2019-01-18T07:48:11.950Z,98.93
2019-01-18T07:49:12.725Z,99.31
2019-01-18T07:50:19.741Z,99.03
2019-01-18T07:51:12.963Z,98.99
2019-01-18T07:52:14.779Z,99.39
2019-01-18T07:53:16.427Z,98.80
2019-01-18T07:54:15.238Z,98.81
2019-01-18T07:55:16.822Z,99.11
2019-01-18T07:56:17.593Z,99.28
2019-01-18T07:57:18.227Z,99.45
2019-01-18T07:58:18.980Z,99.32
2019-01-18T07:59:19.629Z,99.09
2019-01-18T08:00:20.286Z,98.74
2019-01-18T08:01:22.133Z,98.33
2019-01-18T08:02:20.834Z,98.07
2019-01-18T08:03:22.481Z,97.79
2019-01-18T08:04:23.045Z,98.29
2019-01-18T08:05:23.837Z,98.22
2019-01-18T08:06:24.457Z,98.06
2019-01-18T08:07:25.201Z,97.52
2019-01-18T08:08:26.188Z,97.37
2019-01-18T08:09:26.269Z,96.96
2019-01-18T08:10:26.921Z,96.85
2019-01-18T08:11:27.516Z,96.77
2019-01-18T08:12:28.207Z,96.77
2019-01-18T08:13:28.735Z,97.12
2019-01-18T08:14:29.394Z,96.76
2019-01-18T08:15:29.523Z,96.73
2019-01-18T08:16:29.879Z,96.68
2019-01-18T08:17:30.636Z,96.45
2019-01-18T08:18:32.406Z,96.07
2019-01-18T08:19:31.501Z,95.77
2019-01-18T08:20:32.234Z,96.17
2019-01-18T08:21:33.077Z,96.19
2019-01-18T08:22:34.013Z,96.18
2019-01-18T08:23:35.002Z,96.31
2019-01-18T08:23:43.318Z,96.11
2019-01-18T08:24:44.125Z,96.08
2019-01-18T08:25:44.788Z,96.35
2019-01-18T08:26:45.642Z,96.25
2019-01-18T08:27:46.497Z,96.58
2019-01-18T08:28:48.544Z,96.83
2019-01-18T08:29:46.862Z,97.08
2019-01-18T08:30:48.536Z,97.10
2019-01-18T08:31:49.263Z,97.08
2019-01-18T08:32:49.858Z,97.15
2019-01-18T08:33:50.765Z,97.36
2019-01-18T08:34:51.472Z,96.98
2019-01-18T08:35:52.159Z,97.11
2019-01-18T08:36:53.102Z,96.78
2019-01-18T08:37:53.961Z,97.20
2019-01-18T08:38:54.591Z,97.27
2019-01-18T08:39:55.277Z,97.10
2019-01-18T08:40:55.985Z,96.68
2019-01-18T08:41:56.854Z,96.84
2019-01-18T08:42:57.448Z,96.66
2019-01-18T08:43:58.085Z,96.57
2019-01-18T08:44:59.046Z,96.62
2019-01-18T08:45:59.738Z,96.61
2019-01-18T08:47:00.529Z,96.40
2019-01-18T08:48:01.453Z,96.52
2019-01-18T08:49:02.019Z,96.52
2019-01-18T08:50:02.472Z,96.57
2019-01-18T08:51:03.901Z,96.39
2019-01-18T08:52:02.948Z,96.49
2019-01-18T08:53:04.603Z,96.14
2019-01-18T08:54:05.361Z,96.04
2019-01-18T08:55:05.949Z,96.11
2019-01-18T08:56:06.571Z,95.95
2019-01-18T08:57:07.249Z,95.88
2019-01-18T08:58:07.949Z,96.11
2019-01-18T08:59:08.579Z,95.86
2019-01-18T09:00:09.263Z,95.74
2019-01-18T09:01:09.874Z,95.69
2019-01-18T09:02:10.575Z,95.91
2019-01-18T09:03:11.145Z,95.85
2019-01-18T09:04:11.866Z,96.08
2019-01-18T09:05:12.190Z,96.19
2019-01-18T09:06:12.852Z,96.02
2019-01-18T09:07:13.571Z,95.65
2019-01-18T09:08:14.201Z,95.51
2019-01-18T09:08:22.642Z,95.92
2019-01-18T09:09:23.295Z,95.95
2019-01-18T09:10:24.887Z,95.91
2019-01-18T09:11:24.437Z,95.91
2019-01-18T09:12:25.190Z,96.50
2019-01-18T09:13:24.636Z,96.47
2019-01-18T09:14:26.160Z,96.11
2019-01-18T09:15:26.947Z,95.96
2019-01-18T09:16:27.495Z,95.59
2019-01-18T09:17:28.231Z,96.13
2019-01-18T09:18:28.317Z,96.19
2019-01-18T09:19:29.246Z,95.84
2019-01-18T09:20:29.928Z,96.20
2019-01-18T09:21:30.401Z,96.40
2019-01-18T09:22:31.040Z,96.53
2019-01-18T09:23:31.561Z,96.15
2019-01-18T09:24:32.286Z,95.92
2019-01-18T09:25:32.414Z,96.19
2019-01-18T09:26:32.328Z,96.39
2019-01-18T09:27:32.668Z,96.18
2019-01-18T09:28:34.277Z,95.77
2019-01-18T09:29:34.090Z,96.25
2019-01-18T09:30:35.088Z,95.86
2019-01-18T09:31:34.777Z,95.64
2019-01-18T09:32:36.293Z,95.90
2019-01-18T09:33:36.708Z,95.88
2019-01-18T09:34:37.510Z,95.96
2019-01-18T09:35:38.318Z,97.14
2019-01-18T09:36:38.912Z,96.83
2019-01-18T09:37:39.782Z,96.56
2019-01-18T09:38:40.510Z,95.50
2019-01-18T09:39:41.284Z,95.75
2019-01-18T09:40:41.895Z,95.72
2019-01-18T09:41:41.887Z,95.03
2019-01-18T09:42:42.776Z,95.36
2019-01-18T09:43:43.567Z,95.30
2019-01-18T09:44:44.065Z,95.80
2019-01-18T09:45:44.571Z,96.26
2019-01-18T09:46:45.472Z,95.87
2019-01-18T09:47:46.085Z,95.67
2019-01-18T09:48:45.539Z,95.15
2019-01-18T09:49:47.191Z,94.72
2019-01-18T09:50:47.633Z,94.65
2019-01-18T09:51:48.096Z,93.89
2019-01-18T09:52:48.560Z,94.53
2019-01-18T09:53:49.431Z,95.27
2019-01-18T09:54:50.029Z,95.10
2019-01-18T09:55:49.631Z,93.54
2019-01-18T09:55:57.704Z,93.90
2019-01-18T09:56:59.396Z,93.91
2019-01-18T09:57:59.970Z,94.38
2019-01-18T09:59:00.805Z,94.29
2019-01-18T10:00:01.487Z,94.00
2019-01-18T10:01:02.875Z,93.83
2019-01-18T10:02:01.410Z,93.58
2019-01-18T10:03:03.299Z,93.41
2019-01-18T10:04:03.858Z,92.35
2019-01-18T10:05:04.544Z,92.10
2019-01-18T10:06:04.971Z,92.19
2019-01-18T10:07:05.451Z,92.54
2019-01-18T10:08:06.134Z,92.85
2019-01-18T10:09:06.829Z,92.69
2019-01-18T10:10:07.014Z,92.42
2019-01-18T10:11:07.475Z,92.52
2019-01-18T10:12:08.180Z,93.19
2019-01-18T10:13:08.651Z,93.59
2019-01-18T10:14:09.168Z,93.42
2019-01-18T10:15:09.898Z,93.54
2019-01-18T10:16:10.524Z,93.10
2019-01-18T10:17:10.971Z,92.93
2019-01-18T10:18:11.447Z,93.64
2019-01-18T10:19:12.232Z,92.89
2019-01-18T10:20:13.020Z,93.20
2019-01-18T10:21:13.538Z,93.74
2019-01-18T10:22:14.092Z,94.11
2019-01-18T10:23:14.986Z,93.77
2019-01-18T10:24:15.668Z,93.50
2019-01-18T10:25:16.101Z,93.40
2019-01-18T10:26:16.893Z,93.41
2019-01-18T10:27:17.353Z,93.35
2019-01-18T10:28:17.995Z,93.37
2019-01-18T10:29:18.678Z,93.42
2019-01-18T10:30:19.235Z,93.18
2019-01-18T10:31:18.797Z,91.75
2019-01-18T10:32:19.799Z,91.84
2019-01-18T10:33:20.545Z,91.33
2019-01-18T10:34:21.132Z,91.19
2019-01-18T10:35:21.878Z,91.77
2019-01-18T10:36:23.540Z,91.49
2019-01-18T10:37:23.467Z,92.37
2019-01-18T10:38:24.349Z,90.88
2019-01-18T10:39:24.884Z,90.16
2019-01-18T10:40:25.733Z,91.14
2019-01-18T10:40:34.354Z,88.69
2019-01-18T10:41:34.372Z,88.35
2019-01-18T10:42:35.946Z,88.03
2019-01-18T10:43:36.515Z,88.66
2019-01-18T10:44:36.519Z,88.47
2019-01-18T10:45:37.167Z,89.29
2019-01-18T10:46:37.884Z,90.21
2019-01-18T10:47:38.499Z,90.62
2019-01-18T10:48:38.166Z,90.28
2019-01-18T10:49:39.887Z,88.46
2019-01-18T10:50:40.635Z,86.05
2019-01-18T10:51:41.285Z,86.53
2019-01-18T10:52:42.176Z,86.29
2019-01-18T10:53:42.853Z,86.69
2019-01-18T10:54:43.773Z,84.89
2019-01-18T10:55:44.418Z,84.32
2019-01-18T10:56:45.107Z,83.92
2019-01-18T10:57:45.579Z,83.91
2019-01-18T10:58:46.179Z,84.41
2019-01-18T10:59:46.606Z,84.57
2019-01-18T11:00:47.277Z,84.67
2019-01-18T11:01:47.784Z,84.60
2019-01-18T11:02:48.375Z,85.54
2019-01-18T11:03:48.848Z,85.67
2019-01-18T11:04:49.383Z,85.47
2019-01-18T11:05:49.854Z,85.66
2019-01-18T11:06:50.495Z,85.61
2019-01-18T11:07:51.156Z,85.86
2019-01-18T11:08:51.248Z,85.55
2019-01-18T11:09:51.773Z,85.61
2019-01-18T11:10:52.320Z,85.86
2019-01-18T11:11:52.812Z,86.14
2019-01-18T11:12:53.316Z,86.22
2019-01-18T11:13:53.792Z,86.35
2019-01-18T11:14:54.400Z,86.19
2019-01-18T11:15:55.118Z,86.43
2019-01-18T11:16:55.586Z,85.87
2019-01-18T11:17:56.066Z,86.25
2019-01-18T11:18:56.973Z,85.79
2019-01-18T11:19:57.540Z,84.80
2019-01-18T11:20:58.370Z,83.43
2019-01-18T11:21:57.662Z,84.58
2019-01-18T11:22:59.169Z,85.11
2019-01-18T11:23:59.646Z,86.19
2019-01-18T11:25:00.218Z,86.82
2019-01-18T11:26:00.807Z,86.47
2019-01-18T11:27:01.389Z,87.25
2019-01-18T11:27:09.729Z,87.82
2019-01-18T11:28:10.715Z,87.87
2019-01-18T11:29:11.477Z,88.19
2019-01-18T11:30:12.177Z,87.16
2019-01-18T20:21:39.821Z,94.82
2019-01-18T20:22:35.699Z,94.81
2019-01-18T20:23:36.318Z,94.28
2019-01-18T20:24:36.393Z,94.35
2019-01-18T20:25:36.966Z,94.36
2019-01-18T20:26:37.389Z,94.16
2019-01-18T20:27:37.986Z,94.04
2019-01-18T20:28:38.342Z,93.87
2019-01-18T20:29:38.927Z,94.07
2019-01-18T20:30:39.599Z,94.73
2019-01-18T20:31:40.119Z,94.54
2019-01-18T20:32:40.963Z,94.54
2019-01-18T20:33:41.396Z,94.87
2019-01-18T20:34:41.930Z,94.95
2019-01-18T20:35:42.164Z,94.93
2019-01-18T20:36:42.461Z,94.75
2019-01-18T20:37:42.851Z,94.74
2019-01-18T20:38:43.334Z,94.74
2019-01-18T20:39:43.649Z,94.77
2019-01-18T20:40:44.100Z,94.86
2019-01-18T20:41:44.498Z,94.67
2019-01-18T20:42:45.058Z,94.12
2019-01-18T20:43:45.369Z,94.13
2019-01-18T20:44:45.420Z,94.51
2019-01-18T20:45:45.807Z,95.13
2019-01-18T20:46:46.392Z,94.43
2019-01-18T20:47:46.869Z,94.57
2019-01-18T20:48:47.493Z,94.50
2019-01-18T20:49:47.923Z,94.68
2019-01-18T20:50:48.380Z,94.23
2019-01-18T20:51:48.919Z,94.15
2019-01-18T20:52:49.390Z,94.26
2019-01-18T20:53:50.151Z,94.23
2019-01-18T20:54:50.570Z,93.96
2019-01-18T20:55:52.243Z,93.91
2019-01-18T20:56:51.665Z,94.22
2019-01-18T20:57:52.108Z,93.88
2019-01-18T20:58:53.588Z,93.80
2019-01-18T20:59:53.210Z,93.70
2019-01-18T21:00:52.505Z,94.09
2019-01-18T21:01:54.148Z,94.03
2019-01-18T21:02:54.524Z,94.00
2019-01-18T21:03:54.927Z,94.30
2019-01-18T21:04:55.591Z,94.53
2019-01-18T21:05:54.912Z,94.34
2019-01-18T21:06:55.661Z,93.94
2019-01-18T21:07:55.838Z,93.95
2019-01-18T21:08:55.897Z,93.73
2019-01-18T21:09:05.695Z,94.08
2019-01-18T21:10:05.199Z,94.11
2019-01-18T21:11:05.780Z,94.04
2019-01-18T21:12:06.402Z,93.83
2019-01-18T21:13:06.502Z,93.62
2019-01-18T21:14:07.445Z,93.93
2019-01-18T21:15:08.139Z,93.83
2019-01-18T21:16:08.914Z,93.71
2019-01-18T21:17:08.961Z,93.72
2019-01-18T21:18:09.934Z,93.80
2019-01-18T21:19:10.848Z,93.76
2019-01-18T21:20:10.071Z,93.46
2019-01-18T21:21:10.653Z,93.41
2019-01-18T21:22:10.943Z,93.40
2019-01-18T21:23:11.107Z,93.40
2019-01-18T21:24:12.017Z,93.43
2019-01-18T21:25:12.515Z,93.05
2019-01-18T21:26:12.738Z,93.23
2019-01-18T21:27:13.378Z,93.26
2019-01-18T21:28:14.907Z,93.38
2019-01-18T21:29:15.317Z,93.29
2019-01-18T21:30:16.026Z,93.39
2019-01-18T21:31:15.145Z,93.82
2019-01-18T21:32:15.824Z,94.04
2019-01-18T21:33:16.335Z,94.40
2019-01-18T21:34:16.856Z,94.22
2019-01-18T21:35:17.322Z,94.05
2019-01-18T21:36:18.234Z,93.88